sensor_id;sensor_type;location;lat;lon;timestamp;pressure;altitude;pressure_sealevel;temperature
53667;BMP280;39568;51.026;5.468;2023-07-31T00:01:04;100363.19;;;16.56
53667;BMP280;39568;51.026;5.468;2023-07-31T00:03:30;100369.28;;;16.57
53667;BMP280;39568;51.026;5.468;2023-07-31T00:05:59;100369.63;;;16.53
53667;BMP280;39568;51.026;5.468;2023-07-31T00:08:25;100363.16;;;16.49
53667;BMP280;39568;51.026;5.468;2023-07-31T00:10:52;100367.13;;;16.48
53667;BMP280;39568;51.026;5.468;2023-07-31T00:13:19;100367.28;;;16.50
53667;BMP280;39568;51.026;5.468;2023-07-31T00:15:46;100362.28;;;16.46
53667;BMP280;39568;51.026;5.468;2023-07-31T00:18:12;100351.53;;;16.46
53667;BMP280;39568;51.026;5.468;2023-07-31T00:20:39;100355.09;;;16.41
53667;BMP280;39568;51.026;5.468;2023-07-31T00:23:07;100344.38;;;16.41
53667;BMP280;39568;51.026;5.468;2023-07-31T00:25:34;100332.19;;;16.40
53667;BMP280;39568;51.026;5.468;2023-07-31T00:28:00;100329.31;;;16.38
53667;BMP280;39568;51.026;5.468;2023-07-31T00:30:27;100340.25;;;16.40
53667;BMP280;39568;51.026;5.468;2023-07-31T00:32:54;100349.56;;;16.39
53667;BMP280;39568;51.026;5.468;2023-07-31T00:35:20;100344.38;;;16.41
53667;BMP280;39568;51.026;5.468;2023-07-31T00:37:47;100342.94;;;16.40
53667;BMP280;39568;51.026;5.468;2023-07-31T00:40:15;100338.09;;;16.39
53667;BMP280;39568;51.026;5.468;2023-07-31T00:42:42;100355.25;;;16.36
53667;BMP280;39568;51.026;5.468;2023-07-31T00:45:09;100336.50;;;16.43
53667;BMP280;39568;51.026;5.468;2023-07-31T00:47:36;100336.66;;;16.45
53667;BMP280;39568;51.026;5.468;2023-07-31T00:50:03;100334.53;;;16.51
53667;BMP280;39568;51.026;5.468;2023-07-31T00:52:30;100334.88;;;16.48
53667;BMP280;39568;51.026;5.468;2023-07-31T00:54:56;100335.41;;;16.54
53667;BMP280;39568;51.026;5.468;2023-07-31T00:57:25;100335.41;;;16.54
53667;BMP280;39568;51.026;5.468;2023-07-31T00:59:51;100329.50;;;16.55
53667;BMP280;39568;51.026;5.468;2023-07-31T01:02:18;100322.91;;;16.56
53667;BMP280;39568;51.026;5.468;2023-07-31T01:04:45;100318.25;;;16.57
53667;BMP280;39568;51.026;5.468;2023-07-31T01:07:18;100317.88;;;16.60
53667;BMP280;39568;51.026;5.468;2023-07-31T01:09:51;100325.75;;;16.58
53667;BMP280;39568;51.026;5.468;2023-07-31T01:12:22;100321.66;;;16.57
53667;BMP280;39568;51.026;5.468;2023-07-31T01:15:03;100322.19;;;16.56
53667;BMP280;39568;51.026;5.468;2023-07-31T01:17:30;100318.94;;;16.65
53667;BMP280;39568;51.026;5.468;2023-07-31T01:20:00;100327.19;;;16.67
53667;BMP280;39568;51.026;5.468;2023-07-31T01:22:39;100319.69;;;16.65
53667;BMP280;39568;51.026;5.468;2023-07-31T01:25:19;100319.31;;;16.69
53667;BMP280;39568;51.026;5.468;2023-07-31T01:27:53;100314.47;;;16.67
53667;BMP280;39568;51.026;5.468;2023-07-31T01:30:27;100321.66;;;16.72
53667;BMP280;39568;51.026;5.468;2023-07-31T01:32:54;100331.50;;;16.70
53667;BMP280;39568;51.026;5.468;2023-07-31T01:35:22;100317.53;;;16.71
53667;BMP280;39568;51.026;5.468;2023-07-31T01:37:52;100318.59;;;16.76
53667;BMP280;39568;51.026;5.468;2023-07-31T01:40:19;100311.97;;;16.77
53667;BMP280;39568;51.026;5.468;2023-07-31T01:42:45;100303.38;;;16.71
53667;BMP280;39568;51.026;5.468;2023-07-31T01:45:13;100304.44;;;16.83
53667;BMP280;39568;51.026;5.468;2023-07-31T01:47:40;100303.72;;;16.82
53667;BMP280;39568;51.026;5.468;2023-07-31T01:50:07;100302.09;;;16.87
53667;BMP280;39568;51.026;5.468;2023-07-31T01:52:34;100302.81;;;16.80
53667;BMP280;39568;51.026;5.468;2023-07-31T01:55:01;100309.44;;;16.86
53667;BMP280;39568;51.026;5.468;2023-07-31T01:57:28;100294.59;;;16.93
53667;BMP280;39568;51.026;5.468;2023-07-31T01:59:54;100301.72;;;16.90
53667;BMP280;39568;51.026;5.468;2023-07-31T02:02:22;100293.50;;;16.96
53667;BMP280;39568;51.026;5.468;2023-07-31T02:04:49;100289.72;;;16.99
53667;BMP280;39568;51.026;5.468;2023-07-31T02:07:16;100288.84;;;16.97
53667;BMP280;39568;51.026;5.468;2023-07-31T02:09:42;100277.91;;;17.02
53667;BMP280;39568;51.026;5.468;2023-07-31T02:12:09;100285.25;;;17.02
53667;BMP280;39568;51.026;5.468;2023-07-31T02:14:36;100278.06;;;17.04
53667;BMP280;39568;51.026;5.468;2023-07-31T02:17:03;100278.06;;;17.04
53667;BMP280;39568;51.026;5.468;2023-07-31T02:19:31;100270.72;;;17.05
53667;BMP280;39568;51.026;5.468;2023-07-31T02:21:57;100268.94;;;17.07
53667;BMP280;39568;51.026;5.468;2023-07-31T02:24:24;100265.19;;;17.03
53667;BMP280;39568;51.026;5.468;2023-07-31T02:26:51;100259.44;;;17.06
53667;BMP280;39568;51.026;5.468;2023-07-31T02:29:17;100261.94;;;17.04
53667;BMP280;39568;51.026;5.468;2023-07-31T02:31:44;100247.81;;;17.04
53667;BMP280;39568;51.026;5.468;2023-07-31T02:34:11;100254.25;;;17.08
53667;BMP280;39568;51.026;5.468;2023-07-31T02:36:39;100261.41;;;17.06
53667;BMP280;39568;51.026;5.468;2023-07-31T02:39:05;100248.16;;;17.00
53667;BMP280;39568;51.026;5.468;2023-07-31T02:41:32;100244.22;;;17.01
53667;BMP280;39568;51.026;5.468;2023-07-31T02:43:59;100249.41;;;17.07
53667;BMP280;39568;51.026;5.468;2023-07-31T02:46:25;100243.28;;;17.06
53667;BMP280;39568;51.026;5.468;2023-07-31T02:48:52;100244.75;;;17.07
53667;BMP280;39568;51.026;5.468;2023-07-31T02:51:19;100246.19;;;17.01
53667;BMP280;39568;51.026;5.468;2023-07-31T02:53:48;100236.84;;;17.09
53667;BMP280;39568;51.026;5.468;2023-07-31T02:56:15;100232.38;;;17.04
53667;BMP280;39568;51.026;5.468;2023-07-31T02:58:41;100233.28;;;17.07
53667;BMP280;39568;51.026;5.468;2023-07-31T03:01:08;100227.38;;;17.08
53667;BMP280;39568;51.026;5.468;2023-07-31T03:03:34;100223.41;;;17.09
53667;BMP280;39568;51.026;5.468;2023-07-31T03:06:01;100223.78;;;17.13
53667;BMP280;39568;51.026;5.468;2023-07-31T03:08:28;100230.75;;;17.09
53667;BMP280;39568;51.026;5.468;2023-07-31T03:10:56;100226.09;;;17.09
53667;BMP280;39568;51.026;5.468;2023-07-31T03:13:23;100221.78;;;17.06
53667;BMP280;39568;51.026;5.468;2023-07-31T03:15:50;100217.53;;;16.95
53667;BMP280;39568;51.026;5.468;2023-07-31T03:18:16;100223.44;;;17.02
53667;BMP280;39568;51.026;5.468;2023-07-31T03:20:43;100213.75;;;16.98
53667;BMP280;39568;51.026;5.468;2023-07-31T03:23:10;100217.00;;;16.97
53667;BMP280;39568;51.026;5.468;2023-07-31T03:25:37;100211.63;;;16.97
53667;BMP280;39568;51.026;5.468;2023-07-31T03:28:05;100212.50;;;17.00
53667;BMP280;39568;51.026;5.468;2023-07-31T03:30:32;100202.13;;;17.04
53667;BMP280;39568;51.026;5.468;2023-07-31T03:32:58;100225.41;;;17.01
53667;BMP280;39568;51.026;5.468;2023-07-31T03:35:25;100201.41;;;17.03
53667;BMP280;39568;51.026;5.468;2023-07-31T03:37:51;100204.25;;;17.05
53667;BMP280;39568;51.026;5.468;2023-07-31T03:40:18;100206.78;;;17.03
53667;BMP280;39568;51.026;5.468;2023-07-31T03:42:45;100201.03;;;16.99
53667;BMP280;39568;51.026;5.468;2023-07-31T03:45:13;100210.72;;;16.94
53667;BMP280;39568;51.026;5.468;2023-07-31T03:47:40;100190.53;;;16.93
53667;BMP280;39568;51.026;5.468;2023-07-31T03:50:07;100191.72;;;17.00
53667;BMP280;39568;51.026;5.468;2023-07-31T03:52:34;100193.16;;;17.01
53667;BMP280;39568;51.026;5.468;2023-07-31T03:55:00;100175.00;;;17.17
53667;BMP280;39568;51.026;5.468;2023-07-31T03:57:27;100181.13;;;17.10
53667;BMP280;39568;51.026;5.468;2023-07-31T03:59:54;100182.72;;;17.13
53667;BMP280;39568;51.026;5.468;2023-07-31T04:02:22;100179.69;;;17.09
53667;BMP280;39568;51.026;5.468;2023-07-31T04:04:48;100177.53;;;17.07
53667;BMP280;39568;51.026;5.468;2023-07-31T04:07:15;100165.88;;;17.12
53667;BMP280;39568;51.026;5.468;2023-07-31T04:09:42;100160.50;;;17.12
53667;BMP280;39568;51.026;5.468;2023-07-31T04:12:08;100164.41;;;17.19
53667;BMP280;39568;51.026;5.468;2023-07-31T04:14:35;100166.88;;;17.24
53667;BMP280;39568;51.026;5.468;2023-07-31T04:17:02;100161.69;;;17.26
53667;BMP280;39568;51.026;5.468;2023-07-31T04:19:30;100147.34;;;17.24
53667;BMP280;39568;51.026;5.468;2023-07-31T04:21:56;100160.44;;;17.27
53667;BMP280;39568;51.026;5.468;2023-07-31T04:24:23;100154.03;;;17.15
53667;BMP280;39568;51.026;5.468;2023-07-31T04:26:50;100157.56;;;17.25
53667;BMP280;39568;51.026;5.468;2023-07-31T04:29:17;100155.72;;;17.35
53667;BMP280;39568;51.026;5.468;2023-07-31T04:31:44;100163.59;;;17.33
53667;BMP280;39568;51.026;5.468;2023-07-31T04:34:10;100163.97;;;17.30
53667;BMP280;39568;51.026;5.468;2023-07-31T04:36:39;100146.09;;;17.25
53667;BMP280;39568;51.026;5.468;2023-07-31T04:39:06;100159.38;;;17.23
53667;BMP280;39568;51.026;5.468;2023-07-31T04:41:32;100147.03;;;17.20
53667;BMP280;39568;51.026;5.468;2023-07-31T04:43:59;100150.84;;;17.09
53667;BMP280;39568;51.026;5.468;2023-07-31T04:46:26;100146.19;;;17.02
53667;BMP280;39568;51.026;5.468;2023-07-31T04:48:52;100140.13;;;17.02
53667;BMP280;39568;51.026;5.468;2023-07-31T04:51:19;100124.25;;;16.81
53667;BMP280;39568;51.026;5.468;2023-07-31T04:53:47;100120.91;;;16.73
53667;BMP280;39568;51.026;5.468;2023-07-31T04:56:15;100121.97;;;16.70
53667;BMP280;39568;51.026;5.468;2023-07-31T04:58:42;100135.22;;;16.68
53667;BMP280;39568;51.026;5.468;2023-07-31T05:01:08;100134.72;;;16.62
53667;BMP280;39568;51.026;5.468;2023-07-31T05:03:35;100128.06;;;16.63
53667;BMP280;39568;51.026;5.468;2023-07-31T05:06:02;100128.63;;;16.54
53667;BMP280;39568;51.026;5.468;2023-07-31T05:08:28;100122.91;;;16.50
53667;BMP280;39568;51.026;5.468;2023-07-31T05:10:56;100125.59;;;16.50
53667;BMP280;39568;51.026;5.468;2023-07-31T05:13:23;100126.50;;;16.52
53667;BMP280;39568;51.026;5.468;2023-07-31T05:15:50;100126.84;;;16.49
53667;BMP280;39568;51.026;5.468;2023-07-31T05:18:16;100115.38;;;16.48
53667;BMP280;39568;51.026;5.468;2023-07-31T05:20:43;100130.81;;;16.48
53667;BMP280;39568;51.026;5.468;2023-07-31T05:23:09;100119.34;;;16.47
53667;BMP280;39568;51.026;5.468;2023-07-31T05:25:36;100120.63;;;16.46
53667;BMP280;39568;51.026;5.468;2023-07-31T05:28:04;100118.44;;;16.45
53667;BMP280;39568;51.026;5.468;2023-07-31T05:30:31;100133.50;;;16.48
53667;BMP280;39568;51.026;5.468;2023-07-31T05:32:58;100130.81;;;16.48
53667;BMP280;39568;51.026;5.468;2023-07-31T05:35:24;100128.66;;;16.46
53667;BMP280;39568;51.026;5.468;2023-07-31T05:37:51;100119.53;;;16.42
53667;BMP280;39568;51.026;5.468;2023-07-31T05:40:17;100127.75;;;16.44
53667;BMP280;39568;51.026;5.468;2023-07-31T05:42:44;100124.38;;;16.43
53667;BMP280;39568;51.026;5.468;2023-07-31T05:45:12;100115.25;;;16.39
53667;BMP280;39568;51.026;5.468;2023-07-31T05:47:39;100109.16;;;16.38
53667;BMP280;39568;51.026;5.468;2023-07-31T05:50:06;100100.38;;;16.45
53667;BMP280;39568;51.026;5.468;2023-07-31T05:52:33;100113.44;;;16.49
53667;BMP280;39568;51.026;5.468;2023-07-31T05:55:00;100109.50;;;16.50
53667;BMP280;39568;51.026;5.468;2023-07-31T05:57:26;100106.09;;;16.49
53667;BMP280;39568;51.026;5.468;2023-07-31T05:59:53;100100.38;;;16.53
53667;BMP280;39568;51.026;5.468;2023-07-31T06:02:21;100091.22;;;16.48
53667;BMP280;39568;51.026;5.468;2023-07-31T06:04:48;100089.81;;;16.47
53667;BMP280;39568;51.026;5.468;2023-07-31T06:07:14;100088.41;;;16.46
53667;BMP280;39568;51.026;5.468;2023-07-31T06:09:41;100098.03;;;16.49
53667;BMP280;39568;51.026;5.468;2023-07-31T06:12:08;100103.25;;;16.40
53667;BMP280;39568;51.026;5.468;2023-07-31T06:14:35;100095.38;;;16.42
53667;BMP280;39568;51.026;5.468;2023-07-31T06:17:01;100101.09;;;16.38
53667;BMP280;39568;51.026;5.468;2023-07-31T06:19:30;100113.47;;;16.34
53667;BMP280;39568;51.026;5.468;2023-07-31T06:21:56;100096.28;;;16.37
53667;BMP280;39568;51.026;5.468;2023-07-31T06:24:23;100102.38;;;16.30
53667;BMP280;39568;51.026;5.468;2023-07-31T06:26:49;100129.56;;;16.34
53667;BMP280;39568;51.026;5.468;2023-07-31T06:29:17;100122.44;;;16.21
53667;BMP280;39568;51.026;5.468;2023-07-31T06:31:43;100121.34;;;16.16
53667;BMP280;39568;51.026;5.468;2023-07-31T06:34:10;100101.34;;;16.02
53667;BMP280;39568;51.026;5.468;2023-07-31T06:36:38;100083.78;;;16.01
53667;BMP280;39568;51.026;5.468;2023-07-31T06:39:05;100099.75;;;15.99
53667;BMP280;39568;51.026;5.468;2023-07-31T06:41:31;100114.91;;;15.97
53667;BMP280;39568;51.026;5.468;2023-07-31T06:43:58;100089.72;;;15.92
53667;BMP280;39568;51.026;5.468;2023-07-31T06:46:25;100081.69;;;15.92
53667;BMP280;39568;51.026;5.468;2023-07-31T06:48:51;100094.19;;;15.97
53667;BMP280;39568;51.026;5.468;2023-07-31T06:51:18;100092.22;;;15.98
53667;BMP280;39568;51.026;5.468;2023-07-31T06:53:46;100095.44;;;16.04
53667;BMP280;39568;51.026;5.468;2023-07-31T06:56:13;100093.28;;;16.02
53667;BMP280;39568;51.026;5.468;2023-07-31T06:58:39;100092.41;;;16.07
53667;BMP280;39568;51.026;5.468;2023-07-31T07:01:06;100074.31;;;16.00
53667;BMP280;39568;51.026;5.468;2023-07-31T07:03:33;100079.50;;;15.98
53667;BMP280;39568;51.026;5.468;2023-07-31T07:06:00;100079.50;;;15.98
53667;BMP280;39568;51.026;5.468;2023-07-31T07:08:27;100082.19;;;16.06
53667;BMP280;39568;51.026;5.468;2023-07-31T07:10:55;100071.09;;;16.02
53667;BMP280;39568;51.026;5.468;2023-07-31T07:13:21;100074.50;;;16.02
53667;BMP280;39568;51.026;5.468;2023-07-31T07:15:48;100081.84;;;16.09
53667;BMP280;39568;51.026;5.468;2023-07-31T07:18:15;100069.47;;;16.14
53667;BMP280;39568;51.026;5.468;2023-07-31T07:20:46;100043.03;;;16.10
53667;BMP280;39568;51.026;5.468;2023-07-31T07:23:14;100056.94;;;16.16
53667;BMP280;39568;51.026;5.468;2023-07-31T07:25:40;100037.78;;;16.20
53667;BMP280;39568;51.026;5.468;2023-07-31T07:28:08;100045.84;;;16.28
53667;BMP280;39568;51.026;5.468;2023-07-31T07:30:35;100041.16;;;16.28
53667;BMP280;39568;51.026;5.468;2023-07-31T07:33:02;100052.66;;;16.21
53667;BMP280;39568;51.026;5.468;2023-07-31T07:35:29;100050.13;;;16.31
53667;BMP280;39568;51.026;5.468;2023-07-31T07:37:55;100048.00;;;16.22
53667;BMP280;39568;51.026;5.468;2023-07-31T07:40:22;100056.91;;;16.24
53667;BMP280;39568;51.026;5.468;2023-07-31T07:42:49;100055.84;;;16.27
53667;BMP280;39568;51.026;5.468;2023-07-31T07:45:17;100065.50;;;16.30
53667;BMP280;39568;51.026;5.468;2023-07-31T07:47:44;100055.88;;;16.19
53667;BMP280;39568;51.026;5.468;2023-07-31T07:50:11;100060.19;;;16.15
53667;BMP280;39568;51.026;5.468;2023-07-31T07:52:37;100046.56;;;16.13
53667;BMP280;39568;51.026;5.468;2023-07-31T07:55:05;100054.44;;;16.18
53667;BMP280;39568;51.026;5.468;2023-07-31T07:57:32;100053.56;;;16.16
53667;BMP280;39568;51.026;5.468;2023-07-31T07:59:58;100058.03;;;16.13
53667;BMP280;39568;51.026;5.468;2023-07-31T08:02:27;100054.97;;;16.17
53667;BMP280;39568;51.026;5.468;2023-07-31T08:04:53;100054.78;;;16.23
53667;BMP280;39568;51.026;5.468;2023-07-31T08:07:20;100048.34;;;16.18
53667;BMP280;39568;51.026;5.468;2023-07-31T08:09:47;100045.50;;;16.24
53667;BMP280;39568;51.026;5.468;2023-07-31T08:12:13;100043.50;;;16.24
53667;BMP280;39568;51.026;5.468;2023-07-31T08:14:40;100051.53;;;16.32
53667;BMP280;39568;51.026;5.468;2023-07-31T08:17:07;100041.53;;;16.25
53667;BMP280;39568;51.026;5.468;2023-07-31T08:19:35;100035.66;;;16.26
53667;BMP280;39568;51.026;5.468;2023-07-31T08:22:02;100045.09;;;16.35
53667;BMP280;39568;51.026;5.468;2023-07-31T08:24:29;100027.59;;;16.26
53667;BMP280;39568;51.026;5.468;2023-07-31T08:26:55;100038.28;;;16.34
53667;BMP280;39568;51.026;5.468;2023-07-31T08:29:22;100033.44;;;16.40
53667;BMP280;39568;51.026;5.468;2023-07-31T08:31:49;100032.00;;;16.46
53667;BMP280;39568;51.026;5.468;2023-07-31T08:34:16;100033.91;;;16.61
53667;BMP280;39568;51.026;5.468;2023-07-31T08:36:44;100033.41;;;16.55
53667;BMP280;39568;51.026;5.468;2023-07-31T08:39:10;100024.75;;;16.64
53667;BMP280;39568;51.026;5.468;2023-07-31T08:41:37;100043.53;;;16.71
53667;BMP280;39568;51.026;5.468;2023-07-31T08:44:04;100041.72;;;16.74
53667;BMP280;39568;51.026;5.468;2023-07-31T08:46:32;100034.50;;;16.84
53667;BMP280;39568;51.026;5.468;2023-07-31T08:49:00;100034.25;;;16.65
53667;BMP280;39568;51.026;5.468;2023-07-31T08:51:30;100066.97;;;16.71
53667;BMP280;39568;51.026;5.468;2023-07-31T08:53:58;100035.63;;;16.73
53667;BMP280;39568;51.026;5.468;2023-07-31T08:56:25;100035.22;;;16.84
53667;BMP280;39568;51.026;5.468;2023-07-31T08:58:53;100038.81;;;16.79
53667;BMP280;39568;51.026;5.468;2023-07-31T09:01:20;100031.34;;;16.78
53667;BMP280;39568;51.026;5.468;2023-07-31T09:03:49;100032.59;;;16.77
53667;BMP280;39568;51.026;5.468;2023-07-31T09:06:18;100026.63;;;16.86
53667;BMP280;39568;51.026;5.468;2023-07-31T09:08:46;100015.56;;;16.82
53667;BMP280;39568;51.026;5.468;2023-07-31T09:11:14;100057.22;;;16.90
53667;BMP280;39568;51.026;5.468;2023-07-31T09:13:42;100037.69;;;16.98
53667;BMP280;39568;51.026;5.468;2023-07-31T09:16:09;100032.34;;;17.15
53667;BMP280;39568;51.026;5.468;2023-07-31T09:18:52;100024.41;;;17.24
53667;BMP280;39568;51.026;5.468;2023-07-31T09:21:19;100027.09;;;17.24
53667;BMP280;39568;51.026;5.468;2023-07-31T09:23:47;100040.25;;;17.37
53667;BMP280;39568;51.026;5.468;2023-07-31T09:26:31;100035.16;;;17.24
53667;BMP280;39568;51.026;5.468;2023-07-31T09:28:57;100038.78;;;17.19
53667;BMP280;39568;51.026;5.468;2023-07-31T09:31:38;100033.31;;;17.02
53667;BMP280;39568;51.026;5.468;2023-07-31T09:34:05;100016.84;;;17.06
53667;BMP280;39568;51.026;5.468;2023-07-31T09:36:32;100012.34;;;17.08
53667;BMP280;39568;51.026;5.468;2023-07-31T09:39:02;100015.69;;;17.16
53667;BMP280;39568;51.026;5.468;2023-07-31T09:41:30;100018.41;;;17.09
53667;BMP280;39568;51.026;5.468;2023-07-31T09:43:57;100030.13;;;17.04
53667;BMP280;39568;51.026;5.468;2023-07-31T09:46:26;100021.50;;;17.05
53667;BMP280;39568;51.026;5.468;2023-07-31T09:48:53;100017.53;;;17.06
53667;BMP280;39568;51.026;5.468;2023-07-31T09:51:29;99997.06;;;17.11
53667;BMP280;39568;51.026;5.468;2023-07-31T09:53:56;100012.81;;;17.14
53667;BMP280;39568;51.026;5.468;2023-07-31T09:56:23;100018.16;;;17.22
53667;BMP280;39568;51.026;5.468;2023-07-31T09:58:52;100017.44;;;17.21
53667;BMP280;39568;51.026;5.468;2023-07-31T10:01:19;100007.91;;;17.45
53667;BMP280;39568;51.026;5.468;2023-07-31T10:03:46;100015.28;;;17.44
53667;BMP280;39568;51.026;5.468;2023-07-31T10:06:14;100006.47;;;17.51
53667;BMP280;39568;51.026;5.468;2023-07-31T10:08:42;99997.13;;;17.69
53667;BMP280;39568;51.026;5.468;2023-07-31T10:11:10;100012.16;;;17.72
53667;BMP280;39568;51.026;5.468;2023-07-31T10:13:40;99992.06;;;17.73
53667;BMP280;39568;51.026;5.468;2023-07-31T10:16:09;100010.66;;;17.96
53667;BMP280;39568;51.026;5.468;2023-07-31T10:18:37;100001.88;;;17.96
53667;BMP280;39568;51.026;5.468;2023-07-31T10:21:05;99983.00;;;18.30
53667;BMP280;39568;51.026;5.468;2023-07-31T10:23:32;100002.00;;;18.32
53667;BMP280;39568;51.026;5.468;2023-07-31T10:26:01;100006.69;;;18.31
53667;BMP280;39568;51.026;5.468;2023-07-31T10:28:29;99984.22;;;18.19
53667;BMP280;39568;51.026;5.468;2023-07-31T10:30:56;99981.91;;;18.16
53667;BMP280;39568;51.026;5.468;2023-07-31T10:33:24;99988.09;;;18.26
53667;BMP280;39568;51.026;5.468;2023-07-31T10:36:12;99991.34;;;18.51
53667;BMP280;39568;51.026;5.468;2023-07-31T10:38:38;99993.81;;;18.66
53667;BMP280;39568;51.026;5.468;2023-07-31T10:41:08;99977.03;;;18.85
53667;BMP280;39568;51.026;5.468;2023-07-31T10:43:36;99963.66;;;19.13
53667;BMP280;39568;51.026;5.468;2023-07-31T10:46:06;99982.44;;;19.40
53667;BMP280;39568;51.026;5.468;2023-07-31T10:48:38;99988.00;;;19.52
53667;BMP280;39568;51.026;5.468;2023-07-31T10:51:08;100002.25;;;19.16
53667;BMP280;39568;51.026;5.468;2023-07-31T10:53:36;99993.63;;;19.37
53667;BMP280;39568;51.026;5.468;2023-07-31T10:56:04;100030.97;;;18.94
53667;BMP280;39568;51.026;5.468;2023-07-31T10:58:31;99985.16;;;18.94
53667;BMP280;39568;51.026;5.468;2023-07-31T11:00:59;99992.41;;;19.01
53667;BMP280;39568;51.026;5.468;2023-07-31T11:03:27;99996.91;;;18.89
53667;BMP280;39568;51.026;5.468;2023-07-31T11:06:08;99988.44;;;18.66
53667;BMP280;39568;51.026;5.468;2023-07-31T11:08:36;99989.38;;;18.52
53667;BMP280;39568;51.026;5.468;2023-07-31T11:11:08;99995.13;;;18.65
53667;BMP280;39568;51.026;5.468;2023-07-31T11:13:41;99999.81;;;18.65
53667;BMP280;39568;51.026;5.468;2023-07-31T11:16:08;99991.75;;;18.74
53667;BMP280;39568;51.026;5.468;2023-07-31T11:18:35;99990.63;;;18.77
53667;BMP280;39568;51.026;5.468;2023-07-31T11:21:02;99993.47;;;18.70
53667;BMP280;39568;51.026;5.468;2023-07-31T11:23:30;99985.06;;;18.66
53667;BMP280;39568;51.026;5.468;2023-07-31T11:25:59;99994.63;;;18.49
53667;BMP280;39568;51.026;5.468;2023-07-31T11:28:31;99977.06;;;18.94
53667;BMP280;39568;51.026;5.468;2023-07-31T11:30:58;99974.25;;;18.92
53667;BMP280;39568;51.026;5.468;2023-07-31T11:33:26;99972.94;;;18.93
53667;BMP280;39568;51.026;5.468;2023-07-31T11:35:52;99988.16;;;18.98
53667;BMP280;39568;51.026;5.468;2023-07-31T11:38:22;99947.19;;;19.09
53667;BMP280;39568;51.026;5.468;2023-07-31T11:40:52;99968.19;;;19.20
53667;BMP280;39568;51.026;5.468;2023-07-31T11:43:19;99961.47;;;19.02
53667;BMP280;39568;51.026;5.468;2023-07-31T11:45:47;99952.47;;;19.26
53667;BMP280;39568;51.026;5.468;2023-07-31T11:48:21;99959.16;;;19.35
53667;BMP280;39568;51.026;5.468;2023-07-31T11:50:49;99957.03;;;19.53
53667;BMP280;39568;51.026;5.468;2023-07-31T11:53:19;99945.94;;;19.68
53667;BMP280;39568;51.026;5.468;2023-07-31T11:55:47;99948.50;;;19.85
53667;BMP280;39568;51.026;5.468;2023-07-31T11:58:16;99951.59;;;20.10
53667;BMP280;39568;51.026;5.468;2023-07-31T12:00:44;99947.78;;;19.94
53667;BMP280;39568;51.026;5.468;2023-07-31T12:03:11;99935.69;;;20.04
53667;BMP280;39568;51.026;5.468;2023-07-31T12:05:38;99934.41;;;19.96
53667;BMP280;39568;51.026;5.468;2023-07-31T12:08:09;99937.44;;;19.62
53667;BMP280;39568;51.026;5.468;2023-07-31T12:10:36;99959.47;;;19.58
53667;BMP280;39568;51.026;5.468;2023-07-31T12:13:04;99933.88;;;19.50
53667;BMP280;39568;51.026;5.468;2023-07-31T12:15:38;99928.78;;;19.54
53667;BMP280;39568;51.026;5.468;2023-07-31T12:18:06;99943.97;;;19.59
53667;BMP280;39568;51.026;5.468;2023-07-31T12:20:33;99934.47;;;19.58
53667;BMP280;39568;51.026;5.468;2023-07-31T12:23:01;99928.19;;;19.65
53667;BMP280;39568;51.026;5.468;2023-07-31T12:25:32;99956.31;;;19.52
53667;BMP280;39568;51.026;5.468;2023-07-31T12:28:04;99929.75;;;19.68
53667;BMP280;39568;51.026;5.468;2023-07-31T12:30:33;99917.41;;;19.74
53667;BMP280;39568;51.026;5.468;2023-07-31T12:33:04;99927.47;;;19.64
53667;BMP280;39568;51.026;5.468;2023-07-31T12:35:36;99891.97;;;19.68
53667;BMP280;39568;51.026;5.468;2023-07-31T12:38:02;99886.69;;;19.79
53667;BMP280;39568;51.026;5.468;2023-07-31T12:40:29;99898.75;;;19.97
53667;BMP280;39568;51.026;5.468;2023-07-31T12:42:56;99876.97;;;20.45
53667;BMP280;39568;51.026;5.468;2023-07-31T12:45:23;99871.78;;;21.34
53667;BMP280;39568;51.026;5.468;2023-07-31T12:47:50;99867.16;;;21.25
53667;BMP280;39568;51.026;5.468;2023-07-31T12:50:18;99859.84;;;21.60
53667;BMP280;39568;51.026;5.468;2023-07-31T12:52:45;99874.38;;;22.22
53667;BMP280;39568;51.026;5.468;2023-07-31T12:55:12;99867.19;;;21.80
53667;BMP280;39568;51.026;5.468;2023-07-31T12:57:40;99877.53;;;21.61
53667;BMP280;39568;51.026;5.468;2023-07-31T13:00:08;99871.63;;;21.53
53667;BMP280;39568;51.026;5.468;2023-07-31T13:02:34;99881.66;;;21.08
53667;BMP280;39568;51.026;5.468;2023-07-31T13:05:01;99907.75;;;20.82
53667;BMP280;39568;51.026;5.468;2023-07-31T13:07:29;99872.66;;;20.73
53667;BMP280;39568;51.026;5.468;2023-07-31T13:09:56;99866.63;;;20.63
53667;BMP280;39568;51.026;5.468;2023-07-31T13:12:23;99871.56;;;20.45
53667;BMP280;39568;51.026;5.468;2023-07-31T13:14:50;99896.78;;;20.29
53667;BMP280;39568;51.026;5.468;2023-07-31T13:17:17;99871.22;;;20.20
53667;BMP280;39568;51.026;5.468;2023-07-31T13:19:44;99864.84;;;20.15
53667;BMP280;39568;51.026;5.468;2023-07-31T13:22:11;99866.44;;;20.09
53667;BMP280;39568;51.026;5.468;2023-07-31T13:24:39;99879.34;;;20.20
53667;BMP280;39568;51.026;5.468;2023-07-31T13:27:06;99877.97;;;20.00
53667;BMP280;39568;51.026;5.468;2023-07-31T13:29:32;99871.81;;;20.19
53667;BMP280;39568;51.026;5.468;2023-07-31T13:31:59;99882.84;;;19.92
53667;BMP280;39568;51.026;5.468;2023-07-31T13:34:26;99883.09;;;19.96
53667;BMP280;39568;51.026;5.468;2023-07-31T13:36:54;99887.81;;;19.86
53667;BMP280;39568;51.026;5.468;2023-07-31T13:39:21;99887.44;;;19.61
53667;BMP280;39568;51.026;5.468;2023-07-31T13:41:49;99891.16;;;19.37
53667;BMP280;39568;51.026;5.468;2023-07-31T13:44:15;99869.69;;;19.29
53667;BMP280;39568;51.026;5.468;2023-07-31T13:46:41;99867.13;;;19.21
53667;BMP280;39568;51.026;5.468;2023-07-31T13:49:08;99859.19;;;19.14
53667;BMP280;39568;51.026;5.468;2023-07-31T13:51:34;99872.53;;;19.21
53667;BMP280;39568;51.026;5.468;2023-07-31T13:54:01;99861.34;;;19.35
53667;BMP280;39568;51.026;5.468;2023-07-31T13:56:28;99873.25;;;19.41
53667;BMP280;39568;51.026;5.468;2023-07-31T13:58:56;99859.91;;;19.53
53667;BMP280;39568;51.026;5.468;2023-07-31T14:01:22;99878.63;;;19.60